Time;durP1;ratioP1;P1;durP2;ratioP2;P2;SDS_P1;SDS_P2;PMS_P1;PMS_P2;Temp;Humidity;BMP_temperature;BMP_pressure;BME280_temperature;BME280_humidity;BME280_pressure;Samples;Min_cycle;Max_cycle;Signal;HPM_P1;HPM_P2
2020/12/10 00:00:54;;;;;;;67.80;22.63;;;-2.30;99.90;;;;;;4451991;28;659651;-61
2020/12/10 00:03:46;;;;;;;74.25;22.50;;;-2.40;99.90;;;;;;4439596;28;660199;-61
2020/12/10 00:06:33;;;;;;;70.50;22.13;;;-2.50;99.90;;;;;;4438933;28;658972;-61
2020/12/10 00:09:23;;;;;;;67.83;22.30;;;-2.50;99.90;;;;;;4460547;28;658869;-60
2020/12/10 00:12:10;;;;;;;65.00;21.33;;;-2.40;99.90;;;;;;4436708;28;658735;-60
2020/12/10 00:14:57;;;;;;;68.03;19.93;;;-2.40;99.90;;;;;;4442236;28;658861;-61
2020/12/10 00:17:44;;;;;;;72.90;22.93;;;-2.50;99.90;;;;;;4459717;28;659830;-60
2020/12/10 00:20:32;;;;;;;67.03;21.27;;;-2.50;99.90;;;;;;4444665;28;658689;-62
2020/12/10 00:23:19;;;;;;;65.80;22.07;;;-2.50;99.90;;;;;;4461645;28;659761;-60
2020/12/10 00:26:06;;;;;;;71.07;20.33;;;-2.50;99.90;;;;;;4444043;28;659616;-62
2020/12/10 00:28:53;;;;;;;69.73;21.73;;;-2.50;99.90;;;;;;4453640;28;658358;-60
2020/12/10 00:31:40;;;;;;;41.60;11.60;;;-2.50;99.90;;;;;;4449435;28;658801;-62
2020/12/10 00:34:27;;;;;;;64.97;20.40;;;-2.50;99.90;;;;;;4434366;28;658629;-60
2020/12/10 00:37:15;;;;;;;69.20;21.60;;;-2.40;99.90;;;;;;4451154;28;659746;-60
2020/12/10 00:40:03;;;;;;;71.57;21.83;;;-2.40;99.90;;;;;;4447414;28;658949;-61
2020/12/10 00:42:50;;;;;;;52.63;15.37;;;-2.40;99.90;;;;;;4458204;28;660196;-60
2020/12/10 00:45:37;;;;;;;58.93;18.00;;;-2.30;99.90;;;;;;4431071;28;659242;-62
2020/12/10 00:48:25;;;;;;;59.33;18.40;;;-2.40;99.90;;;;;;4459178;28;659735;-60
2020/12/10 00:51:12;;;;;;;78.50;20.37;;;-2.40;99.90;;;;;;4443932;28;658483;-61
2020/12/10 00:54:00;;;;;;;50.63;16.20;;;-2.40;99.90;;;;;;4458087;28;659898;-61
2020/12/10 00:56:47;;;;;;;56.13;17.60;;;-2.40;99.90;;;;;;4440210;28;658686;-61
2020/12/10 00:59:34;;;;;;;55.57;17.63;;;-2.50;99.90;;;;;;4458775;28;661289;-60
2020/12/10 01:02:21;;;;;;;65.73;18.80;;;-2.50;99.90;;;;;;4457013;28;659052;-60
2020/12/10 01:05:07;;;;;;;48.60;13.53;;;-2.40;99.90;;;;;;4434705;28;659085;-61
2020/12/10 01:07:54;;;;;;;44.90;14.07;;;-2.30;99.90;;;;;;4465063;28;660242;-60
2020/12/10 01:10:42;;;;;;;71.35;19.35;;;-2.30;99.90;;;;;;4434393;28;658604;-63
2020/12/10 01:13:29;;;;;;;63.90;18.00;;;-2.40;99.90;;;;;;4464615;28;659862;-61
2020/12/10 01:16:17;;;;;;;75.00;21.33;;;-2.50;99.90;;;;;;4453088;28;658559;-62
2020/12/10 01:19:04;;;;;;;68.60;19.80;;;-2.50;99.90;;;;;;4465358;28;660032;-60
2020/12/10 01:21:51;;;;;;;66.13;18.80;;;-2.50;99.90;;;;;;4447693;28;658399;-61
2020/12/10 01:24:38;;;;;;;61.47;18.57;;;-2.50;99.90;;;;;;4456974;28;659010;-60
2020/12/10 01:27:26;;;;;;;54.78;17.25;;;-2.50;99.90;;;;;;4456345;28;659180;-61
2020/12/10 01:30:13;;;;;;;37.83;12.53;;;-2.50;99.90;;;;;;4428499;28;660546;-60
2020/12/10 01:33:00;;;;;;;41.90;13.20;;;-2.50;99.90;;;;;;4460612;28;658915;-60
2020/12/10 01:35:47;;;;;;;55.37;16.53;;;-2.60;99.90;;;;;;4432737;28;658577;-61
2020/12/10 01:38:34;;;;;;;38.03;11.53;;;-2.50;99.90;;;;;;4457257;28;660056;-62
2020/12/10 01:41:26;;;;;;;52.40;16.97;;;-2.50;99.90;;;;;;4461414;28;658999;-62
2020/12/10 01:44:14;;;;;;;44.88;14.25;;;-2.50;99.90;;;;;;4445597;28;659932;-60
2020/12/10 01:47:01;;;;;;;36.13;11.67;;;-2.40;99.90;;;;;;4434652;28;658545;-62
2020/12/10 01:49:49;;;;;;;50.43;14.63;;;-2.50;99.90;;;;;;4449105;28;658339;-60
2020/12/10 01:52:37;;;;;;;58.20;15.30;;;-2.60;99.90;;;;;;4438705;28;659963;-63
2020/12/10 01:55:24;;;;;;;35.17;12.87;;;-2.50;99.90;;;;;;4457386;28;660349;-60
2020/12/10 01:58:10;;;;;;;52.93;16.80;;;-2.50;99.90;;;;;;4459252;28;658214;-60
2020/12/10 02:00:58;;;;;;;66.00;17.60;;;-2.50;99.90;;;;;;4426738;28;658619;-61
2020/12/10 02:03:45;;;;;;;58.70;17.77;;;-2.50;99.90;;;;;;4464019;28;658987;-60
2020/12/10 02:06:32;;;;;;;61.40;18.50;;;-2.60;99.90;;;;;;4437593;28;658429;-60
2020/12/10 02:09:19;;;;;;;60.63;19.77;;;-2.50;99.90;;;;;;4456004;28;660336;-60
2020/12/10 02:12:06;;;;;;;65.25;18.02;;;-2.60;99.90;;;;;;4441420;28;659433;-61
2020/12/10 02:14:53;;;;;;;64.67;14.03;;;-2.50;99.90;;;;;;4461815;28;658334;-60
2020/12/10 02:17:41;;;;;;;54.17;16.38;;;-2.40;99.90;;;;;;4448047;28;658908;-60
2020/12/10 02:20:28;;;;;;;42.23;12.87;;;-2.40;99.90;;;;;;4434566;28;659976;-60
2020/12/10 02:23:16;;;;;;;50.37;15.03;;;-2.30;99.90;;;;;;4448009;28;659061;-60
2020/12/10 02:26:03;;;;;;;55.53;13.13;;;-2.30;99.90;;;;;;4430809;28;660492;-61
2020/12/10 02:28:50;;;;;;;37.77;11.17;;;-2.40;99.90;;;;;;4464464;28;658787;-60
2020/12/10 02:31:37;;;;;;;41.93;12.03;;;-2.40;99.90;;;;;;4435528;28;658562;-61
2020/12/10 02:34:24;;;;;;;35.60;10.53;;;-2.50;99.90;;;;;;4457863;28;659740;-60
2020/12/10 02:37:11;;;;;;;53.63;15.33;;;-2.50;99.90;;;;;;4443239;28;658606;-61
2020/12/10 02:39:59;;;;;;;51.83;15.10;;;-2.50;99.90;;;;;;4450115;28;659190;-60
2020/12/10 02:42:46;;;;;;;55.10;16.40;;;-2.50;99.90;;;;;;4440321;28;658663;-61
2020/12/10 02:45:33;;;;;;;55.25;15.27;;;-2.60;99.90;;;;;;4461186;28;659536;-60
2020/12/10 02:48:20;;;;;;;50.07;14.07;;;-2.60;99.90;;;;;;4464721;28;658907;-61
2020/12/10 02:51:07;;;;;;;52.93;16.10;;;-2.60;99.90;;;;;;4438074;28;659231;-61
2020/12/10 02:53:54;;;;;;;33.90;11.10;;;-2.70;99.90;;;;;;4452792;28;660111;-60
2020/12/10 02:56:43;;;;;;;48.00;14.03;;;-2.50;99.90;;;;;;4439891;28;660144;-61
2020/12/10 02:59:30;;;;;;;48.40;13.87;;;-2.50;99.90;;;;;;4456280;28;660175;-60
2020/12/10 03:02:17;;;;;;;53.77;14.77;;;-2.50;99.90;;;;;;4438220;28;660008;-61
2020/12/10 03:05:04;;;;;;;50.73;13.53;;;-2.50;99.90;;;;;;4460360;28;660434;-59
2020/12/10 03:07:51;;;;;;;58.93;14.67;;;-2.50;99.90;;;;;;4458332;28;659415;-62
2020/12/10 03:10:38;;;;;;;44.50;14.32;;;-2.50;99.90;;;;;;4465052;28;659698;-60
2020/12/10 03:13:26;;;;;;;57.25;14.68;;;-2.50;99.90;;;;;;4452845;28;661194;-60
2020/12/10 03:16:13;;;;;;;53.87;11.73;;;-2.50;99.90;;;;;;4442165;28;659781;-60
2020/12/10 03:19:00;;;;;;;51.47;15.83;;;-2.60;99.90;;;;;;4460514;28;659282;-60
2020/12/10 03:21:47;;;;;;;53.10;15.93;;;-2.60;99.90;;;;;;4441749;28;658752;-60
2020/12/10 03:24:34;;;;;;;52.00;16.07;;;-2.70;99.90;;;;;;4454700;28;659684;-60
2020/12/10 03:27:21;;;;;;;46.30;15.20;;;-2.80;99.90;;;;;;4456336;28;659257;-62
2020/12/10 03:30:09;;;;;;;54.33;14.30;;;-2.80;99.90;;;;;;4470999;28;659501;-61
2020/12/10 03:32:56;;;;;;;55.00;15.53;;;-2.70;99.90;;;;;;4444409;28;658734;-62
2020/12/10 03:35:43;;;;;;;692.73;44.73;;;-2.70;99.90;;;;;;4458296;28;658362;-60
2020/12/10 03:38:30;;;;;;;51.20;16.47;;;-2.70;99.90;;;;;;4459171;28;661199;-61
2020/12/10 03:41:17;;;;;;;54.90;15.95;;;-2.70;99.90;;;;;;4434213;28;659847;-60
2020/12/10 03:44:04;;;;;;;51.03;17.40;;;-2.60;99.90;;;;;;4468796;28;659394;-60
2020/12/10 03:46:52;;;;;;;61.47;18.52;;;-2.60;99.90;;;;;;4440878;28;658779;-62
2020/12/10 03:49:39;;;;;;;50.57;16.93;;;-2.70;99.90;;;;;;4458058;28;659903;-61
2020/12/10 03:52:26;;;;;;;54.10;14.95;;;-2.80;99.90;;;;;;4433690;28;659827;-62
2020/12/10 03:55:13;;;;;;;54.45;15.80;;;-2.70;99.90;;;;;;4462908;28;658972;-61
2020/12/10 03:58:00;;;;;;;55.60;18.70;;;-2.70;99.90;;;;;;4459025;28;658340;-60
2020/12/10 04:00:47;;;;;;;51.93;16.67;;;-2.60;99.90;;;;;;4431632;28;658742;-61
2020/12/10 04:03:35;;;;;;;64.50;17.10;;;-2.70;99.90;;;;;;4460306;28;660388;-61
2020/12/10 04:06:22;;;;;;;61.80;17.27;;;-2.60;99.90;;;;;;4440715;28;658792;-61
2020/12/10 04:09:09;;;;;;;62.13;17.50;;;-2.60;99.90;;;;;;4459756;28;658751;-61
2020/12/10 04:11:56;;;;;;;51.97;16.40;;;-2.70;99.90;;;;;;4433786;28;658873;-62
2020/12/10 04:14:43;;;;;;;52.80;17.33;;;-2.60;99.90;;;;;;4459294;28;658622;-60
2020/12/10 04:17:30;;;;;;;52.37;16.67;;;-2.70;99.90;;;;;;4453717;28;659017;-60
2020/12/10 04:20:18;;;;;;;58.67;18.73;;;-2.60;99.90;;;;;;4439585;28;658728;-61
2020/12/10 04:23:05;;;;;;;37.13;12.23;;;-2.60;99.90;;;;;;4454419;28;658740;-60
2020/12/10 04:25:52;;;;;;;55.07;14.73;;;-2.60;99.90;;;;;;4442750;28;658778;-61
2020/12/10 04:28:39;;;;;;;48.13;15.02;;;-2.60;99.90;;;;;;4458251;28;660069;-60
2020/12/10 04:31:26;;;;;;;65.07;13.63;;;-2.60;99.90;;;;;;4441971;28;658853;-62
2020/12/10 04:34:13;;;;;;;66.17;16.60;;;-2.60;99.90;;;;;;4454531;28;658563;-60
2020/12/10 04:37:01;;;;;;;71.77;17.50;;;-2.60;99.90;;;;;;4461587;28;658701;-60
2020/12/10 04:39:48;;;;;;;42.50;13.43;;;-2.60;99.90;;;;;;4435608;28;659974;-61
2020/12/10 04:42:35;;;;;;;57.07;17.20;;;-2.60;99.90;;;;;;4460330;28;659569;-61
2020/12/10 04:45:22;;;;;;;59.87;17.90;;;-2.60;99.90;;;;;;4438315;28;659639;-62
2020/12/10 04:48:09;;;;;;;50.37;17.87;;;-2.70;99.90;;;;;;4456327;28;659619;-61
2020/12/10 04:50:57;;;;;;;57.83;18.70;;;-2.60;99.90;;;;;;4455089;28;658602;-62
2020/12/10 04:53:45;;;;;;;53.33;14.00;;;-2.60;99.90;;;;;;4450697;28;660108;-60
2020/12/10 04:56:32;;;;;;;52.53;16.97;;;-2.60;99.90;;;;;;4434223;28;658599;-61
2020/12/10 04:59:19;;;;;;;50.43;16.33;;;-2.60;99.90;;;;;;4454234;28;661383;-61
2020/12/10 05:02:09;;;;;;;44.63;14.97;;;-2.70;99.90;;;;;;4457749;28;660461;-61
2020/12/10 05:04:57;;;;;;;43.17;15.93;;;-2.70;99.90;;;;;;4415861;28;659190;-62
2020/12/10 05:07:43;;;;;;;50.43;16.03;;;-2.70;99.90;;;;;;4462203;28;660075;-60
2020/12/10 05:10:41;;;;;;;56.27;16.13;;;-2.70;99.90;;;;;;4461925;28;658995;-60
2020/12/10 05:13:28;;;;;;;43.20;10.70;;;-2.70;99.90;;;;;;4412057;28;660097;-60
2020/12/10 05:16:21;;;;;;;47.63;14.33;;;-2.50;99.90;;;;;;4456997;28;658637;-61
2020/12/10 05:19:18;;;;;;;72.07;16.50;;;-2.50;99.90;;;;;;4406667;28;660189;-61
2020/12/10 05:22:05;;;;;;;42.30;13.60;;;-2.50;99.90;;;;;;4428348;28;658608;-60
2020/12/10 05:25:02;;;;;;;37.10;11.83;;;-2.60;99.90;;;;;;4439741;28;658604;-61
2020/12/10 05:28:00;;;;;;;40.33;11.33;;;-2.60;99.90;;;;;;4441265;28;658680;-60
2020/12/10 05:31:04;;;;;;;33.05;12.30;;;-2.60;99.90;;;;;;4414483;28;659546;-60
2020/12/10 05:33:53;;;;;;;40.05;12.45;;;-2.70;99.90;;;;;;4429976;28;660142;-62
2020/12/10 05:36:40;;;;;;;28.47;9.13;;;-2.60;99.90;;;;;;4449263;28;659651;-59
2020/12/10 05:39:28;;;;;;;38.67;13.40;;;-2.50;99.90;;;;;;4443062;28;657445;-61
2020/12/10 05:42:15;;;;;;;44.73;14.23;;;-2.50;99.90;;;;;;4458338;28;658719;-60
2020/12/10 05:45:11;;;;;;;42.17;13.97;;;-2.60;99.90;;;;;;4442822;28;658479;-61
2020/12/10 05:47:58;;;;;;;47.00;14.33;;;-2.60;99.90;;;;;;4403368;28;659629;-61
2020/12/10 05:50:45;;;;;;;35.50;11.80;;;-2.60;99.90;;;;;;4462861;28;659262;-59
2020/12/10 05:53:32;;;;;;;41.10;13.70;;;-2.60;99.90;;;;;;4432791;28;658755;-60
2020/12/10 05:56:19;;;;;;;40.55;12.85;;;-2.60;99.90;;;;;;4453609;28;660097;-60
2020/12/10 05:59:06;;;;;;;44.87;14.60;;;-2.60;99.90;;;;;;4438841;28;658562;-62
2020/12/10 06:01:55;;;;;;;42.87;14.60;;;-2.60;99.90;;;;;;4457273;28;660927;-61
2020/12/10 06:04:42;;;;;;;44.40;14.53;;;-2.60;99.90;;;;;;4437463;28;658653;-61
2020/12/10 06:07:29;;;;;;;37.67;10.80;;;-2.60;99.90;;;;;;4460865;28;660024;-60
2020/12/10 06:10:16;;;;;;;33.73;11.40;;;-2.60;99.90;;;;;;4454022;28;658596;-62
2020/12/10 06:13:04;;;;;;;38.97;12.10;;;-2.60;99.90;;;;;;4461329;28;658182;-60
2020/12/10 06:15:51;;;;;;;33.00;9.97;;;-2.60;99.90;;;;;;4453398;28;658578;-62
2020/12/10 06:18:53;;;;;;;33.33;10.70;;;-2.60;99.90;;;;;;4460598;28;659844;-60
2020/12/10 06:21:43;;;;;;;46.57;14.97;;;-2.60;99.90;;;;;;4434454;28;659747;-61
2020/12/10 06:24:36;;;;;;;32.93;11.73;;;-2.60;99.90;;;;;;4426269;28;659219;-60
2020/12/10 06:27:27;;;;;;;38.13;12.10;;;-2.60;99.90;;;;;;4404968;28;660439;-60
2020/12/10 06:30:17;;;;;;;45.97;14.83;;;-2.60;99.90;;;;;;4425848;28;660127;-60
2020/12/10 06:33:04;;;;;;;44.17;13.73;;;-2.70;99.90;;;;;;4434488;28;660778;-60
2020/12/10 06:35:52;;;;;;;38.50;12.52;;;-2.70;99.90;;;;;;4445220;28;660153;-61
2020/12/10 06:38:42;;;;;;;43.90;14.43;;;-2.60;99.90;;;;;;4455768;28;659529;-61
2020/12/10 06:41:29;;;;;;;51.42;17.55;;;-2.60;99.90;;;;;;4428508;28;659429;-62
2020/12/10 06:44:31;;;;;;;57.50;16.90;;;-2.70;99.90;;;;;;4436393;28;658653;-62
2020/12/10 06:47:19;;;;;;;45.27;14.90;;;-2.60;99.90;;;;;;4411928;28;660450;-61
2020/12/10 06:50:21;;;;;;;44.33;15.17;;;-2.50;99.90;;;;;;4459424;28;660109;-61
2020/12/10 06:53:13;;;;;;;48.87;16.27;;;-2.60;99.90;;;;;;4440941;27;658178;-62
2020/12/10 06:56:05;;;;;;;53.00;16.60;;;-2.60;99.90;;;;;;4442552;27;658877;-61
2020/12/10 06:58:55;;;;;;;41.20;14.80;;;-2.60;99.90;;;;;;4418914;27;660207;-62
2020/12/10 07:01:42;;;;;;;42.83;14.00;;;-2.70;99.90;;;;;;4432340;28;658911;-61
2020/12/10 07:04:33;;;;;;;57.33;18.27;;;-2.60;99.90;;;;;;4472070;28;659534;-61
2020/12/10 07:07:21;;;;;;;57.50;18.07;;;-2.50;99.90;;;;;;4444729;28;658979;-61
2020/12/10 07:10:09;;;;;;;46.73;16.53;;;-2.60;99.90;;;;;;4433227;28;658811;-61
2020/12/10 07:12:56;;;;;;;36.37;12.00;;;-2.60;99.90;;;;;;4456310;28;658634;-61
2020/12/10 07:15:48;;;;;;;49.67;15.67;;;-2.50;99.90;;;;;;4436969;28;659699;-61
2020/12/10 07:18:35;;;;;;;40.60;12.97;;;-2.50;99.90;;;;;;4434306;28;660569;-60
2020/12/10 07:21:22;;;;;;;54.93;17.03;;;-2.50;99.90;;;;;;4432084;28;658469;-61
2020/12/10 07:24:09;;;;;;;64.70;20.33;;;-2.40;99.90;;;;;;4461604;28;659982;-61
2020/12/10 07:26:57;;;;;;;369.60;29.03;;;-2.40;99.90;;;;;;4440819;28;658494;-61
2020/12/10 07:29:50;;;;;;;52.65;17.20;;;-2.40;99.90;;;;;;4457785;28;660525;-61
2020/12/10 07:32:37;;;;;;;46.37;16.43;;;-2.40;99.90;;;;;;4423410;28;658667;-62
2020/12/10 07:35:31;;;;;;;42.13;14.30;;;-2.40;99.90;;;;;;4450113;28;660073;-60
2020/12/10 07:38:18;;;;;;;25.70;9.30;;;-2.30;99.90;;;;;;4413599;28;659514;-61
2020/12/10 07:41:06;;;;;;;41.63;12.43;;;-2.20;99.90;;;;;;4459680;28;658132;-61
2020/12/10 07:43:54;;;;;;;42.83;14.80;;;-2.20;99.90;;;;;;4431827;28;658477;-61
2020/12/10 07:46:41;;;;;;;51.40;15.93;;;-2.30;99.90;;;;;;4458207;28;658255;-61
2020/12/10 07:49:28;;;;;;;42.30;15.33;;;-2.30;99.90;;;;;;4439469;28;658443;-61
2020/12/10 07:52:15;;;;;;;47.40;16.60;;;-2.30;99.90;;;;;;4458871;28;658634;-61
2020/12/10 07:55:02;;;;;;;42.57;14.17;;;-2.30;99.90;;;;;;4438898;28;658475;-61
2020/12/10 07:58:00;;;;;;;40.47;14.60;;;-2.20;99.90;;;;;;4458640;28;660366;-60
2020/12/10 08:00:48;;;;;;;54.70;19.77;;;-2.20;99.90;;;;;;4410599;28;660297;-60
2020/12/10 08:03:43;;;;;;;47.92;16.77;;;-2.20;99.90;;;;;;4457514;28;659978;-62
2020/12/10 08:06:31;;;;;;;45.63;16.77;;;-2.10;99.90;;;;;;4433927;28;660488;-60
2020/12/10 08:09:18;;;;;;;52.27;16.13;;;-2.10;99.90;;;;;;4436884;28;659104;-61
2020/12/10 08:12:05;;;;;;;35.03;14.00;;;-2.00;99.90;;;;;;4449878;28;659027;-60
2020/12/10 08:14:52;;;;;;;38.00;14.23;;;-1.90;99.90;;;;;;4433761;28;658720;-61
2020/12/10 08:17:40;;;;;;;36.53;14.10;;;-1.80;99.90;;;;;;4460011;28;659920;-62
2020/12/10 08:20:35;;;;;;;32.90;13.30;;;-1.70;99.90;;;;;;4431801;28;659452;-62
2020/12/10 08:23:22;;;;;;;50.83;17.50;;;-1.70;99.90;;;;;;4444653;28;658430;-61
2020/12/10 08:26:10;;;;;;;41.37;13.07;;;-1.70;99.90;;;;;;4462869;28;658834;-61
2020/12/10 08:28:57;;;;;;;38.47;13.90;;;-1.70;99.90;;;;;;4440436;28;658523;-61
2020/12/10 08:31:44;;;;;;;36.37;12.93;;;-1.70;99.90;;;;;;4455187;28;660258;-61
2020/12/10 08:34:32;;;;;;;26.90;10.27;;;-1.70;99.90;;;;;;4453533;28;658454;-63
2020/12/10 08:37:19;;;;;;;29.83;11.70;;;-1.70;99.90;;;;;;4455038;28;659309;-61
2020/12/10 08:40:06;;;;;;;27.70;11.23;;;-1.70;99.90;;;;;;4440572;28;658627;-61
2020/12/10 08:42:53;;;;;;;35.30;12.05;;;-1.60;99.90;;;;;;4466445;28;658916;-60
2020/12/10 08:45:44;;;;;;;33.60;12.65;;;-1.60;99.90;;;;;;4457179;28;658927;-61
2020/12/10 08:48:31;;;;;;;29.17;9.93;;;-1.70;99.90;;;;;;4434290;28;658882;-61
2020/12/10 08:51:19;;;;;;;36.00;12.77;;;-1.60;99.90;;;;;;4440773;28;657670;-61
2020/12/10 08:54:05;;;;;;;37.27;12.47;;;-1.60;99.90;;;;;;4452745;28;659111;-60
2020/12/10 08:56:59;;;;;;;23.17;10.20;;;-1.60;99.90;;;;;;4432423;28;658650;-61
2020/12/10 08:59:48;;;;;;;38.17;12.20;;;-1.60;99.90;;;;;;4413207;28;658802;-62
2020/12/10 09:02:35;;;;;;;27.07;11.20;;;-1.60;99.90;;;;;;4458557;27;659970;-61
2020/12/10 09:05:21;;;;;;;27.43;10.80;;;-1.50;99.90;;;;;;4430719;28;658803;-62
2020/12/10 09:08:09;;;;;;;28.95;10.98;;;-1.30;99.90;;;;;;4458699;28;659255;-61
2020/12/10 09:10:56;;;;;;;26.63;10.18;;;-1.40;99.90;;;;;;4431306;28;658853;-63
2020/12/10 09:13:43;;;;;;;32.63;14.17;;;-1.40;99.90;;;;;;4462389;28;659580;-61
2020/12/10 09:16:30;;;;;;;35.60;14.47;;;-1.40;99.90;;;;;;4455143;28;658476;-61
2020/12/10 09:19:17;;;;;;;28.60;11.67;;;-1.50;99.90;;;;;;4435359;28;658771;-61
2020/12/10 09:22:04;;;;;;;43.23;16.23;;;-1.30;99.90;;;;;;4456723;28;659510;-61
2020/12/10 09:24:55;;;;;;;31.93;12.23;;;-1.50;99.90;;;;;;4437824;28;658704;-62
2020/12/10 09:27:42;;;;;;;42.88;15.43;;;-1.40;99.90;;;;;;4434432;28;658634;-62
2020/12/10 09:30:29;;;;;;;43.03;16.67;;;-1.50;99.90;;;;;;4458937;28;659825;-60
2020/12/10 09:33:17;;;;;;;32.47;12.93;;;-1.40;99.90;;;;;;4445894;28;658703;-62
2020/12/10 09:36:04;;;;;;;29.50;10.80;;;-1.30;99.90;;;;;;4460877;28;660231;-61
2020/12/10 09:38:51;;;;;;;42.13;15.30;;;-1.40;99.90;;;;;;4457287;28;658589;-62
2020/12/10 09:41:43;;;;;;;29.07;12.83;;;-1.40;99.90;;;;;;4467272;28;658611;-61
2020/12/10 09:44:29;;;;;;;31.97;12.73;;;-1.30;99.90;;;;;;4427966;28;659533;-60
2020/12/10 09:47:16;;;;;;;30.07;12.83;;;-1.40;99.90;;;;;;4440457;28;660206;-61
2020/12/10 09:50:06;;;;;;;39.42;14.80;;;-1.40;99.90;;;;;;4462744;28;659256;-61
2020/12/10 09:53:04;;;;;;;43.10;15.90;;;-1.40;99.90;;;;;;4437403;28;658698;-61
2020/12/10 09:56:35;;;;;;;38.13;13.68;;;-1.40;99.90;;;;;;4414499;28;658487;-63
2020/12/10 09:59:18;;;;;;;30.30;11.33;;;-1.30;99.90;;;;;;4416738;28;660853;-61
2020/12/10 10:02:05;;;;;;;31.52;12.30;;;-1.20;99.90;;;;;;4451008;28;658842;-61
2020/12/10 10:04:52;;;;;;;34.17;12.67;;;-1.10;99.90;;;;;;4440356;28;659128;-61
2020/12/10 10:07:40;;;;;;;34.97;13.47;;;-1.00;99.90;;;;;;4455716;28;659280;-61
2020/12/10 10:10:27;;;;;;;30.03;12.40;;;-1.00;99.90;;;;;;4431626;28;658411;-61
2020/12/10 10:13:14;;;;;;;35.47;13.03;;;-1.00;99.90;;;;;;4448770;28;659924;-61
2020/12/10 10:16:02;;;;;;;30.17;13.47;;;-0.80;99.90;;;;;;4447562;28;658668;-62
2020/12/10 10:18:49;;;;;;;26.97;11.80;;;-0.80;99.90;;;;;;4456104;28;659950;-60
2020/12/10 10:21:36;;;;;;;31.17;13.00;;;-0.70;99.90;;;;;;4441516;28;658695;-62
2020/12/10 10:24:24;;;;;;;24.80;9.00;;;-0.60;99.90;;;;;;4469156;28;658300;-61
2020/12/10 10:27:11;;;;;;;34.90;12.60;;;-0.50;99.90;;;;;;4460787;28;657331;-60
2020/12/10 10:29:58;;;;;;;33.80;13.83;;;-0.50;99.90;;;;;;4436015;28;659245;-61
2020/12/10 10:32:46;;;;;;;31.30;13.47;;;-0.50;99.90;;;;;;4452382;28;658509;-62
2020/12/10 10:35:33;;;;;;;33.73;13.03;;;-0.50;99.90;;;;;;4433922;28;658300;-61
2020/12/10 10:38:20;;;;;;;37.33;14.60;;;-0.50;99.90;;;;;;4461532;28;659444;-61
2020/12/10 10:41:07;;;;;;;38.03;14.90;;;-0.40;99.90;;;;;;4441584;28;658930;-61
2020/12/10 10:43:54;;;;;;;44.00;17.57;;;-0.40;99.90;;;;;;4460488;28;659967;-61
2020/12/10 10:46:41;;;;;;;35.20;14.20;;;-0.40;99.90;;;;;;4460936;28;659502;-63
2020/12/10 10:49:29;;;;;;;44.47;16.47;;;-0.40;99.90;;;;;;4473910;28;658489;-60
2020/12/10 10:52:17;;;;;;;34.88;13.90;;;-0.30;99.90;;;;;;4444733;28;658985;-62
2020/12/10 10:55:04;;;;;;;42.10;15.83;;;-0.30;99.90;;;;;;4463490;28;659524;-60
2020/12/10 10:57:51;;;;;;;29.13;11.67;;;-0.30;99.90;;;;;;4468831;28;658322;-61
2020/12/10 11:00:38;;;;;;;44.03;14.17;;;-0.30;99.90;;;;;;4454122;27;658749;-61
2020/12/10 11:03:25;;;;;;;34.70;12.87;;;-0.20;99.90;;;;;;4468204;28;659841;-61
2020/12/10 11:06:15;;;;;;;40.97;15.23;;;-0.20;99.90;;;;;;4445716;28;658403;-62
2020/12/10 11:09:02;;;;;;;28.45;11.27;;;-0.30;99.90;;;;;;4448157;28;658536;-60
2020/12/10 11:11:53;;;;;;;31.95;12.23;;;-0.20;99.90;;;;;;4469000;28;660091;-61
2020/12/10 11:14:40;;;;;;;27.17;11.47;;;-0.30;99.90;;;;;;4433758;28;659249;-60
2020/12/10 11:17:27;;;;;;;32.27;13.17;;;-0.30;99.90;;;;;;4449304;28;658845;-61
2020/12/10 11:20:14;;;;;;;33.33;13.48;;;-0.40;99.90;;;;;;4469220;28;660555;-60
2020/12/10 11:23:02;;;;;;;44.80;16.20;;;-0.50;99.90;;;;;;4450564;28;658511;-63
2020/12/10 11:25:49;;;;;;;32.60;12.80;;;-0.50;99.90;;;;;;4467300;28;660105;-60
2020/12/10 11:28:37;;;;;;;36.47;13.93;;;-0.50;99.90;;;;;;4450514;27;659325;-62
2020/12/10 11:31:24;;;;;;;38.93;15.00;;;-0.60;99.90;;;;;;4466224;28;660508;-60
2020/12/10 11:34:11;;;;;;;37.37;14.73;;;-0.50;99.90;;;;;;4459365;28;659942;-62
2020/12/10 11:36:58;;;;;;;37.87;14.30;;;-0.60;99.90;;;;;;4446012;28;658719;-61
2020/12/10 11:39:46;;;;;;;41.93;14.87;;;-0.60;99.90;;;;;;4456600;28;658616;-60
2020/12/10 11:42:33;;;;;;;35.13;14.73;;;-0.70;99.90;;;;;;4445161;28;659302;-61
2020/12/10 11:45:20;;;;;;;34.47;14.87;;;-0.70;99.90;;;;;;4464771;28;659878;-61
2020/12/10 11:48:07;;;;;;;38.40;15.33;;;-0.60;99.90;;;;;;4440937;28;658474;-61
2020/12/10 11:50:54;;;;;;;37.67;15.00;;;-0.60;99.90;;;;;;4471993;28;659359;-61
2020/12/10 11:53:43;;;;;;;59.70;16.00;;;-0.70;99.90;;;;;;4454215;28;658741;-63
2020/12/10 11:56:31;;;;;;;32.73;13.40;;;-0.70;99.90;;;;;;4462792;28;659146;-62
2020/12/10 11:59:18;;;;;;;46.03;16.30;;;-0.70;99.90;;;;;;4441755;27;658372;-60
2020/12/10 12:02:07;;;;;;;49.60;16.40;;;-0.70;99.90;;;;;;4463692;27;658374;-61
2020/12/10 12:04:54;;;;;;;47.78;18.27;;;-0.80;99.90;;;;;;4436054;28;660007;-61
2020/12/10 12:07:44;;;;;;;47.97;18.70;;;-0.90;99.90;;;;;;4443404;28;658810;-63
2020/12/10 12:10:32;;;;;;;59.93;21.70;;;-0.90;99.90;;;;;;4447507;28;658899;-63
2020/12/10 12:13:20;;;;;;;98.13;26.37;;;-0.90;99.90;;;;;;4463857;28;659871;-61
2020/12/10 12:16:07;;;;;;;71.40;23.57;;;-0.80;99.90;;;;;;4441337;28;659446;-61
2020/12/10 12:18:54;;;;;;;56.13;20.87;;;-0.90;99.90;;;;;;4467919;28;660543;-61
2020/12/10 12:21:41;;;;;;;63.30;23.13;;;-0.90;99.90;;;;;;4459449;28;658683;-62
2020/12/10 12:24:29;;;;;;;69.90;23.47;;;-0.90;99.90;;;;;;4464260;28;659913;-61
2020/12/10 12:27:16;;;;;;;82.50;23.90;;;-0.80;99.90;;;;;;4458089;28;658805;-61
2020/12/10 12:30:04;;;;;;;38.67;15.40;;;-0.80;99.90;;;;;;4440016;28;660908;-61
2020/12/10 12:32:51;;;;;;;45.03;16.57;;;-0.70;99.90;;;;;;4455434;28;658436;-62
2020/12/10 12:35:40;;;;;;;56.72;20.35;;;-0.70;99.90;;;;;;4454397;28;659403;-61
2020/12/10 12:38:27;;;;;;;65.80;24.73;;;-0.70;99.90;;;;;;4438850;28;658607;-62
2020/12/10 12:41:14;;;;;;;70.87;26.53;;;-0.80;99.90;;;;;;4449249;28;660023;-60
2020/12/10 12:44:02;;;;;;;52.80;19.97;;;-0.80;99.90;;;;;;4446439;28;658868;-62
2020/12/10 12:46:51;;;;;;;61.87;22.77;;;-0.70;99.90;;;;;;4449558;28;659781;-62
2020/12/10 12:49:41;;;;;;;71.03;24.97;;;-0.70;99.90;;;;;;4440344;28;660816;-61
2020/12/10 12:52:28;;;;;;;61.37;22.63;;;-0.70;99.90;;;;;;4434718;28;658738;-62
2020/12/10 12:55:15;;;;;;;48.03;19.67;;;-0.70;99.90;;;;;;4457486;28;659690;-61
2020/12/10 12:58:02;;;;;;;44.23;16.37;;;-0.70;99.90;;;;;;4431615;28;658862;-62
2020/12/10 13:00:49;;;;;;;39.57;16.10;;;-0.70;99.90;;;;;;4462673;28;659658;-61
2020/12/10 13:03:37;;;;;;;47.53;17.93;;;-0.70;99.90;;;;;;4465716;28;658563;-61
2020/12/10 13:06:24;;;;;;;45.10;17.50;;;-0.70;99.90;;;;;;4437486;28;658961;-61
2020/12/10 13:09:11;;;;;;;45.40;16.93;;;-0.70;99.90;;;;;;4456938;28;658869;-60
2020/12/10 13:11:58;;;;;;;56.83;19.80;;;-0.70;99.90;;;;;;4447829;28;658603;-61
2020/12/10 13:14:45;;;;;;;50.80;18.23;;;-0.70;99.90;;;;;;4466364;28;659837;-62
2020/12/10 13:17:32;;;;;;;58.57;19.40;;;-0.70;99.90;;;;;;4437639;28;658344;-61
2020/12/10 13:20:20;;;;;;;57.00;20.67;;;-0.70;99.90;;;;;;4465254;28;659505;-62
2020/12/10 13:23:07;;;;;;;49.63;19.27;;;-0.70;99.90;;;;;;4441220;28;658706;-61
2020/12/10 13:25:54;;;;;;;44.03;17.50;;;-0.70;99.90;;;;;;4458243;28;660536;-61
2020/12/10 13:28:44;;;;;;;43.80;15.97;;;-0.70;99.90;;;;;;4460195;28;658615;-63
2020/12/10 13:31:31;;;;;;;51.10;20.63;;;-0.80;99.90;;;;;;4457941;28;659303;-61
2020/12/10 13:34:18;;;;;;;79.27;30.47;;;-0.80;99.90;;;;;;4443012;28;659043;-63
2020/12/10 13:37:06;;;;;;;58.80;22.63;;;-0.80;99.90;;;;;;4465169;28;659477;-61
2020/12/10 13:39:53;;;;;;;56.23;22.73;;;-0.80;99.90;;;;;;4429556;28;658420;-61
2020/12/10 13:42:41;;;;;;;47.13;19.33;;;-0.80;99.90;;;;;;4457425;28;659022;-62
2020/12/10 13:45:28;;;;;;;58.83;21.50;;;-0.80;99.90;;;;;;4434542;28;660298;-62
2020/12/10 13:48:15;;;;;;;62.33;23.30;;;-0.80;99.90;;;;;;4456804;28;658539;-61
2020/12/10 13:51:02;;;;;;;51.07;20.57;;;-0.80;99.90;;;;;;4437519;28;658751;-61
2020/12/10 13:53:50;;;;;;;58.30;21.97;;;-0.80;99.90;;;;;;4457804;28;659497;-60
2020/12/10 13:56:37;;;;;;;58.00;21.90;;;-0.80;99.90;;;;;;4436720;28;660803;-61
2020/12/10 13:59:24;;;;;;;58.93;23.90;;;-0.80;99.90;;;;;;4461816;28;659579;-62
2020/12/10 14:02:15;;;;;;;76.80;26.73;;;-0.80;99.90;;;;;;4448107;28;658666;-63